sensor_id;sensor_type;location;lat;lon;timestamp;P1;durP1;ratioP1;P2;durP2;ratioP2
11287;SDS011;5700;50.996;7.044;2022-12-13T00:00:03;21.52;;;10.02;;
11287;SDS011;5700;50.996;7.044;2022-12-13T00:03:07;29.38;;;11.20;;
11287;SDS011;5700;50.996;7.044;2022-12-13T00:06:10;21.50;;;10.05;;
11287;SDS011;5700;50.996;7.044;2022-12-13T00:09:12;21.15;;;10.23;;
11287;SDS011;5700;50.996;7.044;2022-12-13T00:12:14;19.77;;;10.05;;
11287;SDS011;5700;50.996;7.044;2022-12-13T00:15:16;19.00;;;10.48;;
11287;SDS011;5700;50.996;7.044;2022-12-13T00:18:17;23.70;;;10.93;;
11287;SDS011;5700;50.996;7.044;2022-12-13T00:21:20;23.48;;;9.77;;
11287;SDS011;5700;50.996;7.044;2022-12-13T00:24:23;21.27;;;9.65;;
11287;SDS011;5700;50.996;7.044;2022-12-13T00:27:24;21.45;;;10.07;;
11287;SDS011;5700;50.996;7.044;2022-12-13T00:30:26;25.20;;;9.70;;
11287;SDS011;5700;50.996;7.044;2022-12-13T00:33:30;25.35;;;11.40;;
11287;SDS011;5700;50.996;7.044;2022-12-13T00:36:33;25.23;;;10.38;;
11287;SDS011;5700;50.996;7.044;2022-12-13T00:39:34;23.52;;;9.23;;
11287;SDS011;5700;50.996;7.044;2022-12-13T00:42:36;20.30;;;10.63;;
11287;SDS011;5700;50.996;7.044;2022-12-13T00:45:37;28.23;;;12.05;;
11287;SDS011;5700;50.996;7.044;2022-12-13T00:48:39;23.98;;;10.23;;
11287;SDS011;5700;50.996;7.044;2022-12-13T00:51:42;27.20;;;11.07;;
11287;SDS011;5700;50.996;7.044;2022-12-13T00:54:43;31.60;;;11.00;;
11287;SDS011;5700;50.996;7.044;2022-12-13T00:57:45;22.10;;;10.52;;
11287;SDS011;5700;50.996;7.044;2022-12-13T01:00:46;19.95;;;9.15;;
11287;SDS011;5700;50.996;7.044;2022-12-13T01:03:47;25.98;;;10.82;;
11287;SDS011;5700;50.996;7.044;2022-12-13T01:06:50;23.55;;;10.05;;
11287;SDS011;5700;50.996;7.044;2022-12-13T01:09:52;21.85;;;11.35;;
11287;SDS011;5700;50.996;7.044;2022-12-13T01:12:54;25.80;;;9.93;;
11287;SDS011;5700;50.996;7.044;2022-12-13T01:15:55;23.58;;;9.73;;
11287;SDS011;5700;50.996;7.044;2022-12-13T01:18:57;26.75;;;11.20;;
11287;SDS011;5700;50.996;7.044;2022-12-13T01:22:01;28.88;;;11.82;;
11287;SDS011;5700;50.996;7.044;2022-12-13T01:25:04;31.08;;;12.20;;
11287;SDS011;5700;50.996;7.044;2022-12-13T01:28:05;21.65;;;10.68;;
11287;SDS011;5700;50.996;7.044;2022-12-13T01:31:07;29.33;;;11.60;;
11287;SDS011;5700;50.996;7.044;2022-12-13T01:34:10;29.75;;;11.70;;
11287;SDS011;5700;50.996;7.044;2022-12-13T01:37:13;21.50;;;11.40;;
11287;SDS011;5700;50.996;7.044;2022-12-13T01:40:16;20.95;;;10.60;;
11287;SDS011;5700;50.996;7.044;2022-12-13T01:43:18;25.33;;;9.63;;
11287;SDS011;5700;50.996;7.044;2022-12-13T01:46:19;23.58;;;9.80;;
11287;SDS011;5700;50.996;7.044;2022-12-13T01:49:20;33.83;;;12.48;;
11287;SDS011;5700;50.996;7.044;2022-12-13T01:52:23;26.55;;;11.18;;
11287;SDS011;5700;50.996;7.044;2022-12-13T01:55:25;35.13;;;12.00;;
11287;SDS011;5700;50.996;7.044;2022-12-13T01:58:29;28.42;;;12.32;;
11287;SDS011;5700;50.996;7.044;2022-12-13T02:01:31;27.25;;;12.35;;
11287;SDS011;5700;50.996;7.044;2022-12-13T02:04:33;22.75;;;10.20;;
11287;SDS011;5700;50.996;7.044;2022-12-13T02:07:39;22.83;;;9.63;;
11287;SDS011;5700;50.996;7.044;2022-12-13T02:10:42;26.35;;;12.13;;
11287;SDS011;5700;50.996;7.044;2022-12-13T02:13:43;21.10;;;10.52;;
11287;SDS011;5700;50.996;7.044;2022-12-13T02:16:46;25.35;;;9.73;;
11287;SDS011;5700;50.996;7.044;2022-12-13T02:20:05;31.08;;;12.02;;
11287;SDS011;5700;50.996;7.044;2022-12-13T02:23:26;22.52;;;9.52;;
11287;SDS011;5700;50.996;7.044;2022-12-13T02:30:13;23.83;;;11.10;;
11287;SDS011;5700;50.996;7.044;2022-12-13T02:33:23;29.27;;;11.32;;
11287;SDS011;5700;50.996;7.044;2022-12-13T02:36:29;29.38;;;12.38;;
11287;SDS011;5700;50.996;7.044;2022-12-13T02:39:35;23.80;;;10.63;;
11287;SDS011;5700;50.996;7.044;2022-12-13T02:42:46;27.50;;;11.57;;
11287;SDS011;5700;50.996;7.044;2022-12-13T02:45:52;24.20;;;10.18;;
11287;SDS011;5700;50.996;7.044;2022-12-13T02:48:55;22.80;;;10.25;;
11287;SDS011;5700;50.996;7.044;2022-12-13T02:51:57;22.67;;;9.77;;
11287;SDS011;5700;50.996;7.044;2022-12-13T02:54:59;25.40;;;11.23;;
11287;SDS011;5700;50.996;7.044;2022-12-13T02:58:06;28.73;;;11.52;;
11287;SDS011;5700;50.996;7.044;2022-12-13T03:01:17;24.45;;;11.43;;
11287;SDS011;5700;50.996;7.044;2022-12-13T03:04:29;29.80;;;12.80;;
11287;SDS011;5700;50.996;7.044;2022-12-13T03:07:38;23.63;;;10.80;;
11287;SDS011;5700;50.996;7.044;2022-12-13T03:10:46;24.45;;;9.77;;
11287;SDS011;5700;50.996;7.044;2022-12-13T03:13:53;22.23;;;10.57;;
11287;SDS011;5700;50.996;7.044;2022-12-13T03:16:55;26.17;;;9.90;;
11287;SDS011;5700;50.996;7.044;2022-12-13T03:19:57;26.05;;;11.57;;
11287;SDS011;5700;50.996;7.044;2022-12-13T03:22:59;29.02;;;11.60;;
11287;SDS011;5700;50.996;7.044;2022-12-13T03:26:01;22.67;;;10.05;;
11287;SDS011;5700;50.996;7.044;2022-12-13T03:29:05;24.65;;;11.05;;
11287;SDS011;5700;50.996;7.044;2022-12-13T03:32:08;23.58;;;10.68;;
11287;SDS011;5700;50.996;7.044;2022-12-13T03:35:09;27.88;;;10.30;;
11287;SDS011;5700;50.996;7.044;2022-12-13T03:38:13;23.63;;;10.05;;
11287;SDS011;5700;50.996;7.044;2022-12-13T03:41:16;25.02;;;10.18;;
11287;SDS011;5700;50.996;7.044;2022-12-13T03:44:18;24.90;;;10.10;;
11287;SDS011;5700;50.996;7.044;2022-12-13T03:47:21;27.48;;;12.25;;
11287;SDS011;5700;50.996;7.044;2022-12-13T03:50:23;29.30;;;10.63;;
11287;SDS011;5700;50.996;7.044;2022-12-13T03:53:24;24.08;;;10.65;;
11287;SDS011;5700;50.996;7.044;2022-12-13T03:56:26;24.42;;;11.10;;
11287;SDS011;5700;50.996;7.044;2022-12-13T03:59:27;24.58;;;9.63;;
11287;SDS011;5700;50.996;7.044;2022-12-13T04:02:30;23.83;;;10.90;;
11287;SDS011;5700;50.996;7.044;2022-12-13T04:05:31;28.38;;;11.90;;
11287;SDS011;5700;50.996;7.044;2022-12-13T04:08:33;28.90;;;12.07;;
11287;SDS011;5700;50.996;7.044;2022-12-13T04:11:34;23.45;;;10.05;;
11287;SDS011;5700;50.996;7.044;2022-12-13T04:14:50;22.65;;;11.05;;
11287;SDS011;5700;50.996;7.044;2022-12-13T04:28:54;25.98;;;10.40;;
11287;SDS011;5700;50.996;7.044;2022-12-13T04:31:55;29.50;;;11.90;;
11287;SDS011;5700;50.996;7.044;2022-12-13T04:34:57;28.70;;;11.75;;
11287;SDS011;5700;50.996;7.044;2022-12-13T04:37:58;28.70;;;10.05;;
11287;SDS011;5700;50.996;7.044;2022-12-13T04:41:03;28.30;;;10.82;;
11287;SDS011;5700;50.996;7.044;2022-12-13T04:44:08;22.65;;;10.45;;
11287;SDS011;5700;50.996;7.044;2022-12-13T04:47:10;28.10;;;12.45;;
11287;SDS011;5700;50.996;7.044;2022-12-13T04:50:11;28.42;;;10.95;;
11287;SDS011;5700;50.996;7.044;2022-12-13T04:53:13;28.83;;;11.48;;
11287;SDS011;5700;50.996;7.044;2022-12-13T04:56:15;29.02;;;11.35;;
11287;SDS011;5700;50.996;7.044;2022-12-13T04:59:17;31.33;;;13.07;;
11287;SDS011;5700;50.996;7.044;2022-12-13T05:02:19;23.65;;;12.18;;
11287;SDS011;5700;50.996;7.044;2022-12-13T05:05:20;32.72;;;11.77;;
11287;SDS011;5700;50.996;7.044;2022-12-13T05:08:22;26.90;;;11.20;;
11287;SDS011;5700;50.996;7.044;2022-12-13T05:11:23;38.83;;;12.85;;
11287;SDS011;5700;50.996;7.044;2022-12-13T05:14:26;22.73;;;11.05;;
11287;SDS011;5700;50.996;7.044;2022-12-13T05:17:27;22.33;;;10.70;;
11287;SDS011;5700;50.996;7.044;2022-12-13T05:20:29;26.50;;;10.65;;
11287;SDS011;5700;50.996;7.044;2022-12-13T05:23:30;22.65;;;10.25;;
11287;SDS011;5700;50.996;7.044;2022-12-13T05:26:32;30.17;;;12.50;;
11287;SDS011;5700;50.996;7.044;2022-12-13T05:29:34;31.27;;;12.55;;
11287;SDS011;5700;50.996;7.044;2022-12-13T05:32:36;32.55;;;12.25;;
11287;SDS011;5700;50.996;7.044;2022-12-13T05:35:38;25.73;;;11.55;;
11287;SDS011;5700;50.996;7.044;2022-12-13T05:38:40;30.50;;;11.40;;
11287;SDS011;5700;50.996;7.044;2022-12-13T05:41:41;23.15;;;10.13;;
11287;SDS011;5700;50.996;7.044;2022-12-13T05:44:44;21.73;;;10.52;;
11287;SDS011;5700;50.996;7.044;2022-12-13T05:47:46;26.23;;;11.38;;
11287;SDS011;5700;50.996;7.044;2022-12-13T05:50:47;28.05;;;11.65;;
11287;SDS011;5700;50.996;7.044;2022-12-13T05:53:49;26.13;;;11.13;;
11287;SDS011;5700;50.996;7.044;2022-12-13T05:56:50;30.50;;;11.60;;
11287;SDS011;5700;50.996;7.044;2022-12-13T05:59:53;25.50;;;11.93;;
11287;SDS011;5700;50.996;7.044;2022-12-13T06:02:54;30.50;;;12.60;;
11287;SDS011;5700;50.996;7.044;2022-12-13T06:05:59;28.48;;;10.45;;
11287;SDS011;5700;50.996;7.044;2022-12-13T06:09:01;25.73;;;10.63;;
11287;SDS011;5700;50.996;7.044;2022-12-13T06:12:02;30.38;;;11.48;;
11287;SDS011;5700;50.996;7.044;2022-12-13T06:15:06;24.02;;;10.90;;
11287;SDS011;5700;50.996;7.044;2022-12-13T06:18:08;21.08;;;9.90;;
11287;SDS011;5700;50.996;7.044;2022-12-13T06:21:09;31.02;;;11.43;;
11287;SDS011;5700;50.996;7.044;2022-12-13T06:24:11;29.23;;;12.20;;
11287;SDS011;5700;50.996;7.044;2022-12-13T06:27:13;26.63;;;11.63;;
11287;SDS011;5700;50.996;7.044;2022-12-13T06:30:16;24.08;;;9.85;;
11287;SDS011;5700;50.996;7.044;2022-12-13T06:33:17;28.40;;;11.18;;
11287;SDS011;5700;50.996;7.044;2022-12-13T06:36:19;29.80;;;12.15;;
11287;SDS011;5700;50.996;7.044;2022-12-13T06:39:21;26.88;;;10.38;;
11287;SDS011;5700;50.996;7.044;2022-12-13T06:42:22;29.15;;;11.88;;
11287;SDS011;5700;50.996;7.044;2022-12-13T06:45:25;24.40;;;11.40;;
11287;SDS011;5700;50.996;7.044;2022-12-13T06:48:26;33.58;;;12.73;;
11287;SDS011;5700;50.996;7.044;2022-12-13T06:51:28;28.73;;;11.35;;
11287;SDS011;5700;50.996;7.044;2022-12-13T06:54:29;34.35;;;12.98;;
11287;SDS011;5700;50.996;7.044;2022-12-13T06:57:31;28.85;;;12.80;;
11287;SDS011;5700;50.996;7.044;2022-12-13T07:00:34;30.13;;;10.77;;
11287;SDS011;5700;50.996;7.044;2022-12-13T07:03:35;32.53;;;11.60;;
11287;SDS011;5700;50.996;7.044;2022-12-13T07:06:37;32.72;;;12.63;;
11287;SDS011;5700;50.996;7.044;2022-12-13T07:09:38;27.27;;;11.27;;
11287;SDS011;5700;50.996;7.044;2022-12-13T07:12:40;29.85;;;10.27;;
11287;SDS011;5700;50.996;7.044;2022-12-13T07:15:42;27.27;;;11.35;;
11287;SDS011;5700;50.996;7.044;2022-12-13T07:18:44;27.45;;;11.90;;
11287;SDS011;5700;50.996;7.044;2022-12-13T07:21:45;32.90;;;11.65;;
11287;SDS011;5700;50.996;7.044;2022-12-13T07:24:47;27.13;;;10.65;;
11287;SDS011;5700;50.996;7.044;2022-12-13T07:27:54;26.38;;;11.35;;
11287;SDS011;5700;50.996;7.044;2022-12-13T07:30:58;36.13;;;12.48;;
11287;SDS011;5700;50.996;7.044;2022-12-13T07:34:00;30.33;;;12.63;;
11287;SDS011;5700;50.996;7.044;2022-12-13T07:37:01;26.38;;;11.88;;
11287;SDS011;5700;50.996;7.044;2022-12-13T07:40:03;25.70;;;10.48;;
11287;SDS011;5700;50.996;7.044;2022-12-13T07:43:05;27.10;;;12.35;;
11287;SDS011;5700;50.996;7.044;2022-12-13T07:46:09;23.13;;;10.35;;
11287;SDS011;5700;50.996;7.044;2022-12-13T07:49:10;24.40;;;9.80;;
11287;SDS011;5700;50.996;7.044;2022-12-13T07:52:12;24.60;;;11.20;;
11287;SDS011;5700;50.996;7.044;2022-12-13T07:55:13;25.85;;;11.55;;
11287;SDS011;5700;50.996;7.044;2022-12-13T07:58:15;22.42;;;10.40;;
11287;SDS011;5700;50.996;7.044;2022-12-13T08:01:18;26.55;;;10.18;;
11287;SDS011;5700;50.996;7.044;2022-12-13T08:04:19;26.77;;;9.93;;
11287;SDS011;5700;50.996;7.044;2022-12-13T08:07:20;25.70;;;9.60;;
11287;SDS011;5700;50.996;7.044;2022-12-13T08:10:22;25.63;;;10.57;;
11287;SDS011;5700;50.996;7.044;2022-12-13T08:13:23;23.48;;;11.77;;
11287;SDS011;5700;50.996;7.044;2022-12-13T08:16:26;26.38;;;11.20;;
11287;SDS011;5700;50.996;7.044;2022-12-13T08:19:27;26.42;;;10.40;;
11287;SDS011;5700;50.996;7.044;2022-12-13T08:22:29;20.23;;;10.13;;
11287;SDS011;5700;50.996;7.044;2022-12-13T08:25:30;26.13;;;11.20;;
11287;SDS011;5700;50.996;7.044;2022-12-13T08:28:32;26.42;;;12.40;;
11287;SDS011;5700;50.996;7.044;2022-12-13T08:31:35;26.15;;;10.85;;
11287;SDS011;5700;50.996;7.044;2022-12-13T08:34:36;29.08;;;11.75;;
11287;SDS011;5700;50.996;7.044;2022-12-13T08:37:38;28.35;;;11.60;;
11287;SDS011;5700;50.996;7.044;2022-12-13T08:40:40;26.52;;;11.65;;
11287;SDS011;5700;50.996;7.044;2022-12-13T08:43:41;28.60;;;11.07;;
11287;SDS011;5700;50.996;7.044;2022-12-13T08:46:44;27.25;;;10.40;;
11287;SDS011;5700;50.996;7.044;2022-12-13T08:49:45;31.60;;;12.27;;
11287;SDS011;5700;50.996;7.044;2022-12-13T08:52:47;29.35;;;11.10;;
11287;SDS011;5700;50.996;7.044;2022-12-13T08:55:48;28.48;;;10.63;;
11287;SDS011;5700;50.996;7.044;2022-12-13T08:58:49;30.90;;;12.18;;
11287;SDS011;5700;50.996;7.044;2022-12-13T09:01:52;26.63;;;11.48;;
11287;SDS011;5700;50.996;7.044;2022-12-13T09:04:54;24.58;;;11.60;;
11287;SDS011;5700;50.996;7.044;2022-12-13T09:07:55;28.13;;;12.00;;
11287;SDS011;5700;50.996;7.044;2022-12-13T09:10:57;25.17;;;10.82;;
11287;SDS011;5700;50.996;7.044;2022-12-13T09:14:00;24.77;;;11.98;;
11287;SDS011;5700;50.996;7.044;2022-12-13T09:17:02;22.52;;;11.00;;
11287;SDS011;5700;50.996;7.044;2022-12-13T09:20:05;31.48;;;11.43;;
11287;SDS011;5700;50.996;7.044;2022-12-13T09:23:08;28.92;;;12.15;;
11287;SDS011;5700;50.996;7.044;2022-12-13T09:26:10;26.48;;;12.13;;
11287;SDS011;5700;50.996;7.044;2022-12-13T09:29:12;30.60;;;12.27;;
11287;SDS011;5700;50.996;7.044;2022-12-13T09:32:16;27.63;;;11.13;;
11287;SDS011;5700;50.996;7.044;2022-12-13T09:35:17;27.67;;;12.00;;
11287;SDS011;5700;50.996;7.044;2022-12-13T09:38:19;27.40;;;10.93;;
11287;SDS011;5700;50.996;7.044;2022-12-13T09:41:22;25.77;;;12.13;;
11287;SDS011;5700;50.996;7.044;2022-12-13T09:44:26;26.75;;;11.77;;
11287;SDS011;5700;50.996;7.044;2022-12-13T09:47:32;26.80;;;11.93;;
11287;SDS011;5700;50.996;7.044;2022-12-13T09:50:35;27.35;;;11.25;;
11287;SDS011;5700;50.996;7.044;2022-12-13T09:53:36;30.00;;;11.70;;
11287;SDS011;5700;50.996;7.044;2022-12-13T09:56:37;25.63;;;10.73;;
11287;SDS011;5700;50.996;7.044;2022-12-13T09:59:39;24.50;;;11.15;;
11287;SDS011;5700;50.996;7.044;2022-12-13T10:02:43;23.30;;;9.80;;
11287;SDS011;5700;50.996;7.044;2022-12-13T10:05:50;26.88;;;10.32;;
11287;SDS011;5700;50.996;7.044;2022-12-13T10:08:57;20.85;;;9.40;;
11287;SDS011;5700;50.996;7.044;2022-12-13T10:12:00;27.05;;;9.43;;
11287;SDS011;5700;50.996;7.044;2022-12-13T10:15:02;24.10;;;9.63;;
11287;SDS011;5700;50.996;7.044;2022-12-13T10:18:05;21.70;;;10.18;;
11287;SDS011;5700;50.996;7.044;2022-12-13T10:21:08;24.58;;;8.73;;
11287;SDS011;5700;50.996;7.044;2022-12-13T10:24:13;23.60;;;10.38;;
11287;SDS011;5700;50.996;7.044;2022-12-13T10:27:16;20.85;;;9.27;;
11287;SDS011;5700;50.996;7.044;2022-12-13T10:30:18;20.85;;;10.25;;
11287;SDS011;5700;50.996;7.044;2022-12-13T10:33:25;23.25;;;9.30;;
11287;SDS011;5700;50.996;7.044;2022-12-13T10:36:29;28.52;;;10.43;;
11287;SDS011;5700;50.996;7.044;2022-12-13T10:39:35;23.10;;;9.68;;
11287;SDS011;5700;50.996;7.044;2022-12-13T10:42:38;22.90;;;9.98;;
11287;SDS011;5700;50.996;7.044;2022-12-13T10:45:40;21.40;;;9.40;;
11287;SDS011;5700;50.996;7.044;2022-12-13T10:48:48;21.17;;;9.35;;
11287;SDS011;5700;50.996;7.044;2022-12-13T10:51:50;23.30;;;10.25;;
11287;SDS011;5700;50.996;7.044;2022-12-13T10:54:53;22.33;;;10.13;;
11287;SDS011;5700;50.996;7.044;2022-12-13T10:57:55;19.50;;;8.77;;
11287;SDS011;5700;50.996;7.044;2022-12-13T11:00:58;19.48;;;9.02;;
11287;SDS011;5700;50.996;7.044;2022-12-13T11:04:19;23.38;;;9.65;;
11287;SDS011;5700;50.996;7.044;2022-12-13T11:07:23;24.08;;;9.73;;
11287;SDS011;5700;50.996;7.044;2022-12-13T11:10:26;22.77;;;9.70;;
11287;SDS011;5700;50.996;7.044;2022-12-13T11:13:32;19.52;;;9.20;;
11287;SDS011;5700;50.996;7.044;2022-12-13T11:16:36;20.33;;;8.75;;
11287;SDS011;5700;50.996;7.044;2022-12-13T11:19:43;19.80;;;8.60;;
11287;SDS011;5700;50.996;7.044;2022-12-13T11:22:45;21.73;;;7.93;;
11287;SDS011;5700;50.996;7.044;2022-12-13T11:25:52;14.30;;;7.03;;
11287;SDS011;5700;50.996;7.044;2022-12-13T11:28:59;14.15;;;5.28;;
11287;SDS011;5700;50.996;7.044;2022-12-13T11:32:08;13.90;;;5.30;;
11287;SDS011;5700;50.996;7.044;2022-12-13T11:35:19;14.40;;;6.55;;
11287;SDS011;5700;50.996;7.044;2022-12-13T11:38:25;11.95;;;5.65;;
11287;SDS011;5700;50.996;7.044;2022-12-13T11:41:30;13.18;;;5.53;;
11287;SDS011;5700;50.996;7.044;2022-12-13T11:44:37;12.88;;;5.45;;
11287;SDS011;5700;50.996;7.044;2022-12-13T11:47:43;14.18;;;6.55;;
11287;SDS011;5700;50.996;7.044;2022-12-13T11:50:48;13.77;;;5.68;;
11287;SDS011;5700;50.996;7.044;2022-12-13T11:53:51;14.02;;;5.50;;
11287;SDS011;5700;50.996;7.044;2022-12-13T11:56:56;11.20;;;5.40;;
11287;SDS011;5700;50.996;7.044;2022-12-13T12:00:03;15.07;;;5.85;;
11287;SDS011;5700;50.996;7.044;2022-12-13T12:03:13;8.68;;;5.15;;
11287;SDS011;5700;50.996;7.044;2022-12-13T12:06:19;11.65;;;5.28;;
11287;SDS011;5700;50.996;7.044;2022-12-13T12:09:25;11.15;;;4.60;;
11287;SDS011;5700;50.996;7.044;2022-12-13T12:12:28;10.70;;;4.07;;
11287;SDS011;5700;50.996;7.044;2022-12-13T12:15:33;12.10;;;4.72;;
11287;SDS011;5700;50.996;7.044;2022-12-13T12:18:37;12.45;;;4.85;;
11287;SDS011;5700;50.996;7.044;2022-12-13T12:21:44;10.68;;;4.60;;
11287;SDS011;5700;50.996;7.044;2022-12-13T12:24:56;14.25;;;5.53;;
11287;SDS011;5700;50.996;7.044;2022-12-13T12:28:03;12.30;;;4.93;;
11287;SDS011;5700;50.996;7.044;2022-12-13T12:31:12;8.95;;;4.32;;
11287;SDS011;5700;50.996;7.044;2022-12-13T12:34:19;11.27;;;4.32;;
11287;SDS011;5700;50.996;7.044;2022-12-13T12:37:33;10.30;;;4.45;;
11287;SDS011;5700;50.996;7.044;2022-12-13T12:40:44;11.23;;;4.88;;
11287;SDS011;5700;50.996;7.044;2022-12-13T12:43:59;9.75;;;4.18;;
11287;SDS011;5700;50.996;7.044;2022-12-13T12:47:09;12.48;;;5.43;;
11287;SDS011;5700;50.996;7.044;2022-12-13T12:50:17;9.75;;;4.05;;
11287;SDS011;5700;50.996;7.044;2022-12-13T12:53:29;11.43;;;4.18;;
11287;SDS011;5700;50.996;7.044;2022-12-13T12:56:38;12.20;;;5.53;;
11287;SDS011;5700;50.996;7.044;2022-12-13T12:59:47;11.50;;;4.63;;
11287;SDS011;5700;50.996;7.044;2022-12-13T13:02:58;7.55;;;3.85;;
11287;SDS011;5700;50.996;7.044;2022-12-13T13:06:03;7.60;;;3.78;;
11287;SDS011;5700;50.996;7.044;2022-12-13T13:09:10;9.20;;;4.25;;
11287;SDS011;5700;50.996;7.044;2022-12-13T13:12:12;9.50;;;4.38;;
11287;SDS011;5700;50.996;7.044;2022-12-13T13:18:47;7.80;;;3.92;;
11287;SDS011;5700;50.996;7.044;2022-12-13T13:21:50;10.90;;;3.88;;
11287;SDS011;5700;50.996;7.044;2022-12-13T13:24:58;7.60;;;3.08;;
11287;SDS011;5700;50.996;7.044;2022-12-13T13:28:13;9.05;;;3.97;;
11287;SDS011;5700;50.996;7.044;2022-12-13T13:31:16;7.88;;;3.55;;
11287;SDS011;5700;50.996;7.044;2022-12-13T13:34:20;6.50;;;3.17;;
11287;SDS011;5700;50.996;7.044;2022-12-13T13:37:26;7.88;;;3.08;;
11287;SDS011;5700;50.996;7.044;2022-12-13T13:40:45;8.18;;;3.67;;
11287;SDS011;5700;50.996;7.044;2022-12-13T13:43:46;8.30;;;4.20;;
11287;SDS011;5700;50.996;7.044;2022-12-13T13:53:41;7.82;;;4.00;;
11287;SDS011;5700;50.996;7.044;2022-12-13T14:00:34;8.02;;;3.65;;
11287;SDS011;5700;50.996;7.044;2022-12-13T14:03:52;8.00;;;3.50;;
11287;SDS011;5700;50.996;7.044;2022-12-13T14:07:09;5.30;;;2.25;;
11287;SDS011;5700;50.996;7.044;2022-12-13T14:10:29;10.52;;;3.67;;
11287;SDS011;5700;50.996;7.044;2022-12-13T14:17:17;7.20;;;3.85;;
11287;SDS011;5700;50.996;7.044;2022-12-13T14:20:38;5.00;;;2.53;;
11287;SDS011;5700;50.996;7.044;2022-12-13T14:23:49;9.85;;;3.33;;
11287;SDS011;5700;50.996;7.044;2022-12-13T14:27:00;7.18;;;3.17;;
11287;SDS011;5700;50.996;7.044;2022-12-13T14:30:11;6.43;;;3.28;;
11287;SDS011;5700;50.996;7.044;2022-12-13T14:33:18;8.90;;;3.92;;
11287;SDS011;5700;50.996;7.044;2022-12-13T14:36:25;10.73;;;3.22;;
11287;SDS011;5700;50.996;7.044;2022-12-13T14:39:28;6.97;;;3.05;;
11287;SDS011;5700;50.996;7.044;2022-12-13T14:42:33;7.82;;;2.75;;
11287;SDS011;5700;50.996;7.044;2022-12-13T14:45:35;7.68;;;3.67;;
11287;SDS011;5700;50.996;7.044;2022-12-13T14:48:43;7.57;;;3.35;;
11287;SDS011;5700;50.996;7.044;2022-12-13T14:51:45;7.40;;;3.35;;
11287;SDS011;5700;50.996;7.044;2022-12-13T14:54:49;7.43;;;3.47;;
11287;SDS011;5700;50.996;7.044;2022-12-13T14:57:53;8.65;;;3.80;;
11287;SDS011;5700;50.996;7.044;2022-12-13T15:00:56;8.82;;;3.20;;
11287;SDS011;5700;50.996;7.044;2022-12-13T15:07:22;7.60;;;3.10;;
11287;SDS011;5700;50.996;7.044;2022-12-13T15:10:33;7.78;;;3.15;;
11287;SDS011;5700;50.996;7.044;2022-12-13T15:13:39;8.00;;;3.13;;
11287;SDS011;5700;50.996;7.044;2022-12-13T15:16:45;7.35;;;3.78;;
11287;SDS011;5700;50.996;7.044;2022-12-13T15:19:49;5.57;;;3.30;;
11287;SDS011;5700;50.996;7.044;2022-12-13T15:22:55;8.60;;;2.55;;
11287;SDS011;5700;50.996;7.044;2022-12-13T15:25:58;9.13;;;3.63;;
11287;SDS011;5700;50.996;7.044;2022-12-13T15:29:03;8.65;;;3.35;;
11287;SDS011;5700;50.996;7.044;2022-12-13T15:32:09;5.20;;;2.90;;
11287;SDS011;5700;50.996;7.044;2022-12-13T15:35:14;7.95;;;3.63;;
11287;SDS011;5700;50.996;7.044;2022-12-13T15:38:17;6.57;;;2.92;;
11287;SDS011;5700;50.996;7.044;2022-12-13T15:41:20;7.10;;;3.28;;
11287;SDS011;5700;50.996;7.044;2022-12-13T15:44:25;7.65;;;3.60;;
11287;SDS011;5700;50.996;7.044;2022-12-13T15:47:27;6.30;;;3.20;;
11287;SDS011;5700;50.996;7.044;2022-12-13T15:50:31;7.55;;;2.70;;
11287;SDS011;5700;50.996;7.044;2022-12-13T15:53:34;7.55;;;3.55;;
11287;SDS011;5700;50.996;7.044;2022-12-13T15:56:36;10.65;;;3.42;;
11287;SDS011;5700;50.996;7.044;2022-12-13T15:59:40;6.40;;;2.63;;
11287;SDS011;5700;50.996;7.044;2022-12-13T16:02:45;7.50;;;3.53;;
11287;SDS011;5700;50.996;7.044;2022-12-13T16:05:52;6.65;;;2.80;;
11287;SDS011;5700;50.996;7.044;2022-12-13T16:08:56;6.28;;;3.75;;
11287;SDS011;5700;50.996;7.044;2022-12-13T16:11:59;11.05;;;3.58;;
11287;SDS011;5700;50.996;7.044;2022-12-13T16:15:12;7.60;;;2.92;;
11287;SDS011;5700;50.996;7.044;2022-12-13T16:18:18;5.95;;;2.92;;
11287;SDS011;5700;50.996;7.044;2022-12-13T16:21:23;8.32;;;4.10;;
11287;SDS011;5700;50.996;7.044;2022-12-13T16:24:25;6.22;;;3.08;;
11287;SDS011;5700;50.996;7.044;2022-12-13T16:27:26;8.23;;;4.13;;
11287;SDS011;5700;50.996;7.044;2022-12-13T16:33:59;11.77;;;4.60;;
11287;SDS011;5700;50.996;7.044;2022-12-13T16:37:03;8.60;;;3.63;;
11287;SDS011;5700;50.996;7.044;2022-12-13T16:40:11;7.15;;;3.92;;
11287;SDS011;5700;50.996;7.044;2022-12-13T16:43:23;7.82;;;3.60;;
11287;SDS011;5700;50.996;7.044;2022-12-13T16:46:25;11.48;;;3.85;;
11287;SDS011;5700;50.996;7.044;2022-12-13T16:49:28;6.93;;;4.28;;
11287;SDS011;5700;50.996;7.044;2022-12-13T16:52:31;7.05;;;3.28;;
11287;SDS011;5700;50.996;7.044;2022-12-13T16:55:32;7.00;;;3.35;;
11287;SDS011;5700;50.996;7.044;2022-12-13T16:58:34;11.23;;;3.72;;
11287;SDS011;5700;50.996;7.044;2022-12-13T17:01:35;5.75;;;3.30;;
11287;SDS011;5700;50.996;7.044;2022-12-13T17:04:36;7.78;;;3.97;;
11287;SDS011;5700;50.996;7.044;2022-12-13T17:07:41;7.20;;;3.15;;
11287;SDS011;5700;50.996;7.044;2022-12-13T17:10:43;7.72;;;3.20;;
11287;SDS011;5700;50.996;7.044;2022-12-13T17:13:45;7.78;;;4.00;;
11287;SDS011;5700;50.996;7.044;2022-12-13T17:16:48;6.40;;;3.25;;
11287;SDS011;5700;50.996;7.044;2022-12-13T17:19:49;7.60;;;3.28;;
11287;SDS011;5700;50.996;7.044;2022-12-13T17:22:54;9.50;;;4.15;;
11287;SDS011;5700;50.996;7.044;2022-12-13T17:25:56;7.18;;;3.28;;
11287;SDS011;5700;50.996;7.044;2022-12-13T17:28:57;7.43;;;3.38;;
11287;SDS011;5700;50.996;7.044;2022-12-13T17:31:59;6.38;;;3.47;;
11287;SDS011;5700;50.996;7.044;2022-12-13T17:35:01;7.40;;;3.30;;
11287;SDS011;5700;50.996;7.044;2022-12-13T17:38:04;8.02;;;3.38;;
11287;SDS011;5700;50.996;7.044;2022-12-13T17:41:05;5.03;;;2.45;;
11287;SDS011;5700;50.996;7.044;2022-12-13T17:44:07;7.78;;;3.38;;
11287;SDS011;5700;50.996;7.044;2022-12-13T17:47:09;7.53;;;3.58;;
11287;SDS011;5700;50.996;7.044;2022-12-13T17:50:10;7.78;;;3.45;;
11287;SDS011;5700;50.996;7.044;2022-12-13T17:53:13;8.15;;;3.03;;
11287;SDS011;5700;50.996;7.044;2022-12-13T17:56:15;5.30;;;2.60;;
11287;SDS011;5700;50.996;7.044;2022-12-13T17:59:16;6.85;;;3.70;;
11287;SDS011;5700;50.996;7.044;2022-12-13T18:02:18;8.45;;;3.67;;
11287;SDS011;5700;50.996;7.044;2022-12-13T18:05:21;7.35;;;3.88;;
11287;SDS011;5700;50.996;7.044;2022-12-13T18:08:26;4.97;;;2.72;;
11287;SDS011;5700;50.996;7.044;2022-12-13T18:11:28;9.13;;;3.40;;
11287;SDS011;5700;50.996;7.044;2022-12-13T18:14:29;5.25;;;2.30;;
11287;SDS011;5700;50.996;7.044;2022-12-13T18:17:30;8.02;;;3.25;;
11287;SDS011;5700;50.996;7.044;2022-12-13T18:20:33;8.52;;;3.28;;
11287;SDS011;5700;50.996;7.044;2022-12-13T18:23:36;6.75;;;3.22;;
11287;SDS011;5700;50.996;7.044;2022-12-13T18:26:38;8.10;;;3.13;;
11287;SDS011;5700;50.996;7.044;2022-12-13T18:29:39;8.80;;;3.40;;
11287;SDS011;5700;50.996;7.044;2022-12-13T18:32:41;6.05;;;2.83;;
11287;SDS011;5700;50.996;7.044;2022-12-13T18:35:43;6.13;;;2.92;;
11287;SDS011;5700;50.996;7.044;2022-12-13T18:38:46;8.18;;;3.22;;
11287;SDS011;5700;50.996;7.044;2022-12-13T18:41:47;7.88;;;3.47;;
11287;SDS011;5700;50.996;7.044;2022-12-13T18:44:49;7.45;;;2.95;;
11287;SDS011;5700;50.996;7.044;2022-12-13T18:47:50;6.93;;;3.50;;
11287;SDS011;5700;50.996;7.044;2022-12-13T18:50:51;5.55;;;2.55;;
11287;SDS011;5700;50.996;7.044;2022-12-13T18:53:54;6.78;;;3.28;;
11287;SDS011;5700;50.996;7.044;2022-12-13T18:56:56;6.78;;;3.10;;
11287;SDS011;5700;50.996;7.044;2022-12-13T18:59:57;7.65;;;3.70;;
11287;SDS011;5700;50.996;7.044;2022-12-13T19:02:59;7.90;;;2.78;;